sensor_id;sensor_type;location;lat;lon;timestamp;P1;durP1;ratioP1;P2;durP2;ratioP2
26102;SDS011;69760;49.380;8.998;2024-01-30T18:25:19;28.98;;;16.00;;
26102;SDS011;69760;49.380;8.998;2024-01-30T18:27:44;24.05;;;13.98;;
26102;SDS011;69760;49.380;8.998;2024-01-30T18:30:11;23.33;;;13.13;;
26102;SDS011;69760;49.380;8.998;2024-01-30T18:32:37;22.98;;;13.43;;
26102;SDS011;69760;49.380;8.998;2024-01-30T18:35:02;22.88;;;13.63;;
26102;SDS011;69760;49.380;8.998;2024-01-30T18:37:28;23.05;;;13.65;;
26102;SDS011;69760;49.380;8.998;2024-01-30T18:39:54;24.38;;;13.02;;
26102;SDS011;69760;49.380;8.998;2024-01-30T18:42:19;22.90;;;13.70;;
26102;SDS011;69760;49.380;8.998;2024-01-30T18:44:48;25.60;;;14.43;;
26102;SDS011;69760;49.380;8.998;2024-01-30T18:47:13;41.03;;;19.95;;
26102;SDS011;69760;49.380;8.998;2024-01-30T18:49:39;39.38;;;20.02;;
26102;SDS011;69760;49.380;8.998;2024-01-30T18:52:05;30.90;;;16.20;;
26102;SDS011;69760;49.380;8.998;2024-01-30T18:54:30;30.65;;;15.13;;
26102;SDS011;69760;49.380;8.998;2024-01-30T18:56:56;21.27;;;11.65;;
26102;SDS011;69760;49.380;8.998;2024-01-30T18:59:21;22.33;;;12.60;;
26102;SDS011;69760;49.380;8.998;2024-01-30T19:01:47;19.08;;;11.38;;
26102;SDS011;69760;49.380;8.998;2024-01-30T19:04:13;41.78;;;22.48;;
26102;SDS011;69760;49.380;8.998;2024-01-30T19:06:38;27.42;;;15.40;;
26102;SDS011;69760;49.380;8.998;2024-01-30T19:09:04;21.10;;;12.68;;
26102;SDS011;69760;49.380;8.998;2024-01-30T19:11:33;19.77;;;11.20;;
26102;SDS011;69760;49.380;8.998;2024-01-30T19:14:02;16.08;;;10.55;;
26102;SDS011;69760;49.380;8.998;2024-01-30T19:16:27;17.95;;;10.65;;
26102;SDS011;69760;49.380;8.998;2024-01-30T19:18:53;21.02;;;11.75;;
26102;SDS011;69760;49.380;8.998;2024-01-30T19:21:18;21.30;;;11.70;;
26102;SDS011;69760;49.380;8.998;2024-01-30T19:23:44;18.42;;;11.15;;
26102;SDS011;69760;49.380;8.998;2024-01-30T19:26:09;23.40;;;13.80;;
26102;SDS011;69760;49.380;8.998;2024-01-30T19:28:35;22.90;;;13.80;;
26102;SDS011;69760;49.380;8.998;2024-01-30T19:31:02;21.92;;;13.30;;
26102;SDS011;69760;49.380;8.998;2024-01-30T19:33:27;18.70;;;11.90;;
26102;SDS011;69760;49.380;8.998;2024-01-30T19:35:53;21.42;;;12.35;;
26102;SDS011;69760;49.380;8.998;2024-01-30T19:38:19;22.08;;;12.05;;
26102;SDS011;69760;49.380;8.998;2024-01-30T19:40:44;16.77;;;12.10;;
26102;SDS011;69760;49.380;8.998;2024-01-30T19:43:10;17.95;;;10.73;;
26102;SDS011;69760;49.380;8.998;2024-01-30T19:45:36;16.80;;;10.68;;
26102;SDS011;69760;49.380;8.998;2024-01-30T19:48:01;20.83;;;11.35;;
26102;SDS011;69760;49.380;8.998;2024-01-30T19:50:30;18.38;;;12.13;;
26102;SDS011;69760;49.380;8.998;2024-01-30T19:52:56;18.55;;;10.38;;
26102;SDS011;69760;49.380;8.998;2024-01-30T19:55:21;20.00;;;11.77;;
26102;SDS011;69760;49.380;8.998;2024-01-30T19:57:47;17.80;;;10.65;;
26102;SDS011;69760;49.380;8.998;2024-01-30T20:00:13;17.38;;;9.85;;
26102;SDS011;69760;49.380;8.998;2024-01-30T20:02:40;16.42;;;10.10;;
26102;SDS011;69760;49.380;8.998;2024-01-30T20:05:06;17.20;;;11.00;;
26102;SDS011;69760;49.380;8.998;2024-01-30T20:07:31;20.52;;;12.90;;
26102;SDS011;69760;49.380;8.998;2024-01-30T20:09:57;23.23;;;13.07;;
26102;SDS011;69760;49.380;8.998;2024-01-30T20:12:23;18.02;;;11.48;;
26102;SDS011;69760;49.380;8.998;2024-01-30T20:14:48;17.88;;;11.35;;
26102;SDS011;69760;49.380;8.998;2024-01-30T20:17:14;15.38;;;10.35;;
26102;SDS011;69760;49.380;8.998;2024-01-30T20:19:43;18.00;;;10.30;;
26102;SDS011;69760;49.380;8.998;2024-01-30T20:22:09;16.48;;;10.73;;
26102;SDS011;69760;49.380;8.998;2024-01-30T20:24:35;16.98;;;10.02;;
26102;SDS011;69760;49.380;8.998;2024-01-30T20:27:01;15.35;;;10.20;;
26102;SDS011;69760;49.380;8.998;2024-01-30T20:29:26;15.60;;;9.50;;
26102;SDS011;69760;49.380;8.998;2024-01-30T20:31:52;16.90;;;9.73;;
26102;SDS011;69760;49.380;8.998;2024-01-30T20:34:17;16.65;;;9.90;;
26102;SDS011;69760;49.380;8.998;2024-01-30T20:36:43;19.45;;;11.27;;
26102;SDS011;69760;49.380;8.998;2024-01-30T20:39:09;15.02;;;9.38;;
26102;SDS011;69760;49.380;8.998;2024-01-30T20:41:39;13.53;;;8.53;;
26102;SDS011;69760;49.380;8.998;2024-01-30T20:44:05;13.77;;;8.73;;
26102;SDS011;69760;49.380;8.998;2024-01-30T20:46:31;15.43;;;8.35;;
26102;SDS011;69760;49.380;8.998;2024-01-30T20:48:57;13.25;;;8.38;;
26102;SDS011;69760;49.380;8.998;2024-01-30T20:51:22;12.57;;;7.85;;
26102;SDS011;69760;49.380;8.998;2024-01-30T20:53:48;12.07;;;7.68;;
26102;SDS011;69760;49.380;8.998;2024-01-30T20:56:13;13.50;;;8.38;;
26102;SDS011;69760;49.380;8.998;2024-01-30T20:58:39;10.77;;;6.97;;
26102;SDS011;69760;49.380;8.998;2024-01-30T21:01:05;10.88;;;7.50;;
26102;SDS011;69760;49.380;8.998;2024-01-30T21:03:30;11.07;;;7.22;;
26102;SDS011;69760;49.380;8.998;2024-01-30T21:05:57;11.50;;;7.78;;
26102;SDS011;69760;49.380;8.998;2024-01-30T21:08:23;13.23;;;8.15;;
